Time;durP1;ratioP1;P1;durP2;ratioP2;P2;SDS_P1;SDS_P2;PMS_P1;PMS_P2;Temp;Humidity;BMP_temperature;BMP_pressure;BME280_temperature;BME280_humidity;BME280_pressure;Samples;Min_cycle;Max_cycle;Signal;HPM_P1;HPM_P2
2023/01/30 00:00:01;;;;;;;;;;;;;;;4.36;63.20;100145.28;4951534;29;19966;-83
2023/01/30 00:02:26;;;;;;;;;;;;;;;4.22;63.80;100146.78;4962308;28;19922;-84
2023/01/30 00:04:51;;;;;;;;;;;;;;;4.15;63.74;100148.38;4982174;28;19921;-83
2023/01/30 00:07:17;;;;;;;;;;;;;;;3.98;64.17;100144.59;4975856;28;20296;-83
2023/01/30 00:09:42;;;;;;;;;;;;;;;4.23;63.58;100149.41;4952733;28;20330;-83
2023/01/30 00:12:07;;;;;;;;;;;;;;;4.32;63.50;100150.44;4970370;28;20281;-84
2023/01/30 00:14:32;;;;;;;;;;;;;;;4.31;62.81;100146.94;4970499;28;20308;-83
2023/01/30 00:16:58;;;;;;;;;;;;;;;4.41;63.37;100143.63;4967645;28;19922;-83
2023/01/30 00:19:23;;;;;;;;;;;;;;;4.18;63.54;100139.72;4970160;28;20699;-82
2023/01/30 00:21:49;;;;;;;;;;;;;;;4.26;63.15;100143.34;4987974;28;19964;-82
2023/01/30 00:24:14;;;;;;;;;;;;;;;4.06;63.63;100150.81;4983400;28;19985;-82
2023/01/30 00:26:39;;;;;;;;;;;;;;;4.03;63.77;100141.22;4969935;28;19922;-82
2023/01/30 00:29:05;;;;;;;;;;;;;;;3.86;64.10;100137.38;4970061;28;19925;-82
2023/01/30 00:31:30;;;;;;;;;;;;;;;4.00;63.93;100141.16;4968866;28;19958;-82
2023/01/30 00:33:55;;;;;;;;;;;;;;;3.91;64.40;100144.47;4969863;28;19997;-82
2023/01/30 00:36:21;;;;;;;;;;;;;;;4.10;63.83;100143.06;4969584;28;19926;-81
2023/01/30 00:38:46;;;;;;;;;;;;;;;4.09;63.42;100141.34;4969999;28;19922;-81
2023/01/30 00:41:14;;;;;;;;;;;;;;;4.13;64.00;100147.47;4970151;28;19961;-82
2023/01/30 00:47:04;;;;;;;;;;;;;;;4.23;63.58;100143.28;4970207;28;19973;-80
2023/01/30 00:49:14;;;;;;;;;;;;;;;4.07;63.66;100136.91;4969168;28;19936;-81
2023/01/30 00:51:40;;;;;;;;;;;;;;;4.11;62.89;100134.41;4969737;28;20197;-81
2023/01/30 00:54:06;;;;;;;;;;;;;;;4.22;63.20;100136.34;4969475;28;19934;-82
2023/01/30 00:56:31;;;;;;;;;;;;;;;4.21;63.31;100137.16;4969483;28;20684;-82
2023/01/30 00:58:56;;;;;;;;;;;;;;;4.21;62.76;100139.78;4951996;28;19928;-82
2023/01/30 01:01:22;;;;;;;;;;;;;;;4.05;63.18;100136.03;4969012;28;19929;-82
2023/01/30 01:03:47;;;;;;;;;;;;;;;3.98;63.12;100136.75;4968480;28;19933;-81
2023/01/30 01:06:12;;;;;;;;;;;;;;;3.96;63.70;100138.47;4969475;28;19960;-81
2023/01/30 01:08:38;;;;;;;;;;;;;;;4.18;63.51;100139.72;4969395;28;19922;-81
2023/01/30 01:11:03;;;;;;;;;;;;;;;4.32;63.20;100138.22;4969123;28;19922;-81
2023/01/30 01:13:29;;;;;;;;;;;;;;;3.93;64.49;100123.63;4969453;28;19922;-81
2023/01/30 01:15:54;;;;;;;;;;;;;;;3.92;64.78;100124.44;4968562;28;20404;-81
2023/01/30 01:18:19;;;;;;;;;;;;;;;4.02;64.74;100120.31;4968844;28;20410;-81
2023/01/30 01:20:44;;;;;;;;;;;;;;;3.75;64.37;100121.53;4968893;28;19918;-81
2023/01/30 01:23:10;;;;;;;;;;;;;;;3.70;65.72;100116.22;4968955;28;19933;-81
2023/01/30 01:25:35;;;;;;;;;;;;;;;3.72;64.75;100113.63;4968418;28;19941;-81
2023/01/30 01:28:00;;;;;;;;;;;;;;;3.77;63.90;100112.00;4968558;28;19922;-81
2023/01/30 01:30:26;;;;;;;;;;;;;;;3.71;63.75;100117.97;4968632;28;19929;-81
2023/01/30 01:32:51;;;;;;;;;;;;;;;3.61;64.14;100110.81;4968376;28;19926;-80
2023/01/30 01:35:18;;;;;;;;;;;;;;;3.65;64.62;100112.66;4968673;28;19926;-80
2023/01/30 01:37:44;;;;;;;;;;;;;;;3.68;64.64;100110.09;4968215;28;19930;-81
2023/01/30 01:42:58;;;;;;;;;;;;;;;3.53;65.02;100110.66;4969059;28;19973;-80
2023/01/30 01:45:23;;;;;;;;;;;;;;;3.65;65.19;100109.16;4968732;28;19922;-81
2023/01/30 01:48:03;;;;;;;;;;;;;;;3.82;64.92;100112.09;4968176;28;20348;-80
2023/01/30 01:50:41;;;;;;;;;;;;;;;3.70;64.33;100121.44;4968119;28;20443;-80
2023/01/30 01:53:07;;;;;;;;;;;;;;;3.72;64.79;100119.75;4968760;28;19930;-81
2023/01/30 01:55:33;;;;;;;;;;;;;;;3.97;64.26;100124.53;4968505;28;19914;-81
2023/01/30 01:58:04;;;;;;;;;;;;;;;3.84;64.12;100116.47;4968082;28;19946;-80
2023/01/30 02:00:30;;;;;;;;;;;;;;;3.82;64.22;100115.56;4950956;28;20405;-80
2023/01/30 02:02:57;;;;;;;;;;;;;;;3.74;64.24;100112.81;4968161;28;19929;-80
2023/01/30 02:05:24;;;;;;;;;;;;;;;3.80;64.64;100106.84;4968390;28;19922;-80
2023/01/30 02:07:58;;;;;;;;;;;;;;;4.09;63.76;100104.78;4968184;28;19999;-81
2023/01/30 02:10:42;;;;;;;;;;;;;;;3.96;63.13;100104.53;4968672;28;19985;-81
2023/01/30 02:13:07;;;;;;;;;;;;;;;4.11;63.42;100102.19;4967811;28;19924;-82
2023/01/30 02:15:33;;;;;;;;;;;;;;;4.04;63.70;100105.53;4968210;28;20595;-80
2023/01/30 02:17:58;;;;;;;;;;;;;;;3.86;63.24;100103.47;4967079;28;19929;-81
2023/01/30 02:20:39;;;;;;;;;;;;;;;3.91;63.03;100096.63;4967480;28;20044;-81
2023/01/30 02:23:04;;;;;;;;;;;;;;;3.85;63.22;100092.16;4950694;28;19954;-82
2023/01/30 02:25:48;;;;;;;;;;;;;;;3.76;62.92;100091.97;4968257;28;19972;-82
2023/01/30 02:28:20;;;;;;;;;;;;;;;3.94;62.51;100084.50;4968270;28;19926;-80
2023/01/30 02:30:51;;;;;;;;;;;;;;;3.71;62.75;100085.81;4967399;28;19918;-81
2023/01/30 02:33:27;;;;;;;;;;;;;;;3.61;62.32;100089.06;4968391;28;19933;-81
2023/01/30 02:36:11;;;;;;;;;;;;;;;3.43;62.65;100086.97;4971415;28;20364;-82
2023/01/30 02:38:36;;;;;;;;;;;;;;;3.46;62.24;100064.47;4983004;28;19918;-81
2023/01/30 02:41:20;;;;;;;;;;;;;;;3.68;62.19;100086.63;4971847;28;19922;-82
2023/01/30 02:43:51;;;;;;;;;;;;;;;3.73;62.49;100084.97;4971741;28;19922;-81
2023/01/30 02:46:19;;;;;;;;;;;;;;;3.88;61.96;100086.13;4971140;28;19930;-82
2023/01/30 02:48:58;;;;;;;;;;;;;;;3.89;61.27;100077.41;4971938;28;20312;-81
2023/01/30 02:51:30;;;;;;;;;;;;;;;3.54;62.63;100081.13;4971377;28;20013;-80
2023/01/30 02:53:57;;;;;;;;;;;;;;;3.59;62.86;100083.81;4971634;28;19926;-81
2023/01/30 02:56:22;;;;;;;;;;;;;;;3.70;62.09;100091.84;4971507;28;20372;-81
2023/01/30 02:58:51;;;;;;;;;;;;;;;3.67;62.38;100090.06;4971518;28;19918;-81
2023/01/30 03:01:28;;;;;;;;;;;;;;;3.55;62.86;100085.50;4971416;28;19922;-81
2023/01/30 03:03:53;;;;;;;;;;;;;;;3.61;62.69;100089.94;4971446;28;19926;-82
2023/01/30 03:06:33;;;;;;;;;;;;;;;3.45;62.43;100087.91;4971062;28;19926;-81
2023/01/30 03:09:10;;;;;;;;;;;;;;;3.51;62.40;100094.09;4986813;28;19950;-82
2023/01/30 03:11:56;;;;;;;;;;;;;;;3.56;62.98;100084.63;4970989;28;20467;-81
2023/01/30 03:14:25;;;;;;;;;;;;;;;3.42;63.03;100082.63;4970745;28;19926;-82
2023/01/30 03:16:53;;;;;;;;;;;;;;;3.40;63.15;100082.59;4971246;28;19922;-81
2023/01/30 03:19:18;;;;;;;;;;;;;;;3.60;62.72;100083.00;4971270;28;19918;-82
2023/01/30 03:21:44;;;;;;;;;;;;;;;3.53;62.76;100081.97;4971431;28;19929;-82
2023/01/30 03:24:10;;;;;;;;;;;;;;;3.68;62.73;100081.38;4971268;28;20025;-82
2023/01/30 03:26:39;;;;;;;;;;;;;;;3.63;62.58;100076.94;4970704;28;19926;-81
2023/01/30 03:29:04;;;;;;;;;;;;;;;3.79;61.73;100072.91;4986301;28;20368;-82
2023/01/30 03:31:30;;;;;;;;;;;;;;;3.78;61.76;100068.53;4986252;28;19922;-81
2023/01/30 03:33:55;;;;;;;;;;;;;;;3.57;62.34;100070.75;4971579;28;19922;-81
2023/01/30 03:36:20;;;;;;;;;;;;;;;3.62;62.10;100068.22;4971167;28;19980;-82
2023/01/30 03:38:46;;;;;;;;;;;;;;;3.64;62.48;100069.13;4970379;28;19926;-83
2023/01/30 03:41:11;;;;;;;;;;;;;;;3.71;62.03;100068.41;4970505;28;19973;-82
2023/01/30 03:43:38;;;;;;;;;;;;;;;3.59;61.96;100068.16;4969832;28;20234;-82
2023/01/30 03:46:03;;;;;;;;;;;;;;;3.80;61.98;100069.41;4970990;28;19931;-82
2023/01/30 03:48:29;;;;;;;;;;;;;;;3.70;61.58;100069.25;4970400;28;19944;-82
2023/01/30 03:50:54;;;;;;;;;;;;;;;3.74;61.50;100073.69;4970286;28;19981;-82
2023/01/30 03:53:19;;;;;;;;;;;;;;;3.80;61.85;100077.25;4953436;28;19973;-83
2023/01/30 03:55:44;;;;;;;;;;;;;;;3.78;61.18;100073.75;4970283;28;20368;-82
2023/01/30 03:58:10;;;;;;;;;;;;;;;3.62;61.57;100073.44;4970231;28;19929;-81
2023/01/30 04:00:35;;;;;;;;;;;;;;;3.54;62.41;100072.44;4970672;28;19922;-81
2023/01/30 04:03:01;;;;;;;;;;;;;;;3.73;61.81;100066.69;4970301;28;19981;-82
2023/01/30 04:05:26;;;;;;;;;;;;;;;3.65;62.02;100067.41;4969941;28;20374;-82
2023/01/30 04:07:54;;;;;;;;;;;;;;;3.51;61.98;100070.63;4970162;28;19923;-82
2023/01/30 04:10:20;;;;;;;;;;;;;;;3.52;61.48;100064.56;4970901;28;19930;-81
2023/01/30 04:12:45;;;;;;;;;;;;;;;3.48;61.66;100067.97;4970010;28;20392;-82
2023/01/30 04:15:11;;;;;;;;;;;;;;;3.58;61.73;100067.31;4970825;28;19922;-81
2023/01/30 04:17:36;;;;;;;;;;;;;;;3.78;61.35;100061.56;4968416;28;19922;-80
2023/01/30 04:20:02;;;;;;;;;;;;;;;3.64;61.38;100063.03;4988294;28;20004;-80
2023/01/30 04:22:27;;;;;;;;;;;;;;;3.40;61.80;100064.34;4970169;28;19922;-80
2023/01/30 04:24:53;;;;;;;;;;;;;;;3.50;61.59;100065.38;4969922;28;19933;-80
2023/01/30 04:27:18;;;;;;;;;;;;;;;3.30;61.88;100058.03;5001217;28;19977;-79
2023/01/30 04:29:43;;;;;;;;;;;;;;;3.31;61.84;100057.19;4984973;28;20021;-80
2023/01/30 04:32:08;;;;;;;;;;;;;;;3.49;61.86;100056.69;4968609;28;19928;-80
2023/01/30 04:34:34;;;;;;;;;;;;;;;3.45;62.30;100064.44;4970018;28;19928;-80
2023/01/30 04:36:59;;;;;;;;;;;;;;;3.24;62.10;100057.91;4969620;28;19926;-83
2023/01/30 04:39:24;;;;;;;;;;;;;;;3.23;61.39;100057.03;4969412;28;20396;-81
2023/01/30 04:41:50;;;;;;;;;;;;;;;3.33;62.26;100054.63;4969086;28;20020;-84
2023/01/30 04:44:16;;;;;;;;;;;;;;;3.40;61.83;100057.38;4969982;28;19932;-83
2023/01/30 04:46:41;;;;;;;;;;;;;;;3.32;62.46;100058.97;4969608;28;19922;-82
2023/01/30 04:49:08;;;;;;;;;;;;;;;3.34;62.48;100067.69;4964012;28;20360;-81
2023/01/30 04:51:33;;;;;;;;;;;;;;;3.17;62.22;100064.72;4969816;28;19930;-83
2023/01/30 04:53:59;;;;;;;;;;;;;;;3.54;61.90;100065.47;4969423;28;20285;-82
2023/01/30 04:56:24;;;;;;;;;;;;;;;3.53;61.44;100061.09;4968973;28;19980;-82
2023/01/30 04:58:49;;;;;;;;;;;;;;;3.35;61.89;100059.03;4969577;28;19926;-82
2023/01/30 05:01:22;;;;;;;;;;;;;;;3.48;61.86;100060.13;4969376;28;19921;-82
2023/01/30 05:03:51;;;;;;;;;;;;;;;3.58;62.07;100058.56;4968404;28;19926;-83
2023/01/30 05:06:16;;;;;;;;;;;;;;;3.46;61.53;100058.34;4961262;28;20009;-81
2023/01/30 05:08:42;;;;;;;;;;;;;;;3.31;61.72;100066.75;4959725;28;20057;-83
2023/01/30 05:11:07;;;;;;;;;;;;;;;3.32;62.03;100066.78;4965233;28;20406;-84
2023/01/30 05:13:32;;;;;;;;;;;;;;;3.55;61.43;100067.25;4957695;28;19922;-82
2023/01/30 05:15:57;;;;;;;;;;;;;;;3.62;61.11;100072.56;4950023;29;19923;-84
2023/01/30 05:18:23;;;;;;;;;;;;;;;3.68;60.67;100070.09;4965888;28;19926;-82
2023/01/30 05:20:51;;;;;;;;;;;;;;;3.52;61.36;100077.63;4973702;28;19932;-82
2023/01/30 05:23:16;;;;;;;;;;;;;;;3.74;61.00;100068.47;4987938;28;19922;-82
2023/01/30 05:25:42;;;;;;;;;;;;;;;3.61;61.01;100079.50;4988431;28;19928;-82
2023/01/30 05:28:07;;;;;;;;;;;;;;;3.75;60.96;100070.22;4976228;28;19929;-82
2023/01/30 05:30:32;;;;;;;;;;;;;;;3.46;61.77;100066.16;4979179;28;19926;-82
2023/01/30 05:32:58;;;;;;;;;;;;;;;3.43;61.64;100064.41;4973419;28;19972;-84
2023/01/30 05:35:23;;;;;;;;;;;;;;;3.25;61.78;100067.50;4981901;28;19922;-84
2023/01/30 05:37:49;;;;;;;;;;;;;;;3.35;62.04;100063.34;4966219;28;19930;-84
2023/01/30 05:40:14;;;;;;;;;;;;;;;3.15;62.03;100065.53;4966634;28;19930;-81
2023/01/30 05:42:39;;;;;;;;;;;;;;;3.25;62.12;100064.91;4968862;28;19926;-82
2023/01/30 05:45:05;;;;;;;;;;;;;;;3.15;61.98;100066.44;4968386;28;20848;-82
2023/01/30 05:47:30;;;;;;;;;;;;;;;3.46;61.57;100074.88;4968330;28;20625;-84
2023/01/30 05:49:56;;;;;;;;;;;;;;;3.24;61.39;100063.13;4968436;28;19929;-86
2023/01/30 05:52:21;;;;;;;;;;;;;;;3.27;61.58;100060.56;4968711;28;19941;-88
2023/01/30 05:54:46;;;;;;;;;;;;;;;3.35;61.21;100059.03;4970388;28;20009;-86
2023/01/30 05:57:11;;;;;;;;;;;;;;;3.55;61.22;100063.72;4968408;28;19926;-84
2023/01/30 05:59:37;;;;;;;;;;;;;;;3.16;61.57;100067.31;4972998;28;19926;-85
2023/01/30 06:02:02;;;;;;;;;;;;;;;3.26;61.28;100061.44;4980899;28;19918;-81
2023/01/30 06:04:27;;;;;;;;;;;;;;;3.34;61.07;100065.09;4958274;28;19914;-81
2023/01/30 06:06:53;;;;;;;;;;;;;;;3.14;61.28;100072.50;4948481;28;19957;-81
2023/01/30 06:09:18;;;;;;;;;;;;;;;3.31;60.97;100067.63;4948464;28;20617;-82
2023/01/30 06:11:43;;;;;;;;;;;;;;;3.41;61.34;100076.50;4953962;28;20017;-82
2023/01/30 06:14:09;;;;;;;;;;;;;;;3.46;61.14;100079.19;4966915;28;20012;-82
2023/01/30 06:16:34;;;;;;;;;;;;;;;3.21;60.91;100073.50;4965245;28;19922;-84
2023/01/30 06:18:59;;;;;;;;;;;;;;;3.43;61.78;100085.25;4955504;28;19922;-82
2023/01/30 06:21:24;;;;;;;;;;;;;;;3.67;61.09;100079.63;4961092;28;20364;-82
2023/01/30 06:23:50;;;;;;;;;;;;;;;3.53;60.39;100084.56;4966127;28;19922;-82
2023/01/30 06:26:15;;;;;;;;;;;;;;;3.53;60.78;100083.72;4967649;28;20368;-81
2023/01/30 06:28:41;;;;;;;;;;;;;;;3.54;61.13;100077.66;4967992;28;20311;-82
2023/01/30 06:31:07;;;;;;;;;;;;;;;3.54;60.50;100072.44;4968178;28;19918;-82
2023/01/30 06:33:32;;;;;;;;;;;;;;;3.37;60.80;100077.31;4967842;28;19928;-82
2023/01/30 06:35:57;;;;;;;;;;;;;;;3.48;60.81;100080.13;4980676;28;19926;-81
2023/01/30 06:38:22;;;;;;;;;;;;;;;3.34;60.81;100078.13;4957106;28;19922;-82
2023/01/30 06:40:48;;;;;;;;;;;;;;;3.37;60.73;100074.69;4952566;28;19923;-81
2023/01/30 06:43:14;;;;;;;;;;;;;;;3.34;60.33;100077.25;4948835;29;20017;-82
2023/01/30 06:45:40;;;;;;;;;;;;;;;3.34;60.69;100072.03;4948766;29;20084;-82
2023/01/30 06:48:05;;;;;;;;;;;;;;;3.38;60.41;100072.13;4949118;29;20387;-83
2023/01/30 06:50:31;;;;;;;;;;;;;;;3.16;60.24;100078.59;4948400;29;20317;-82
2023/01/30 06:52:57;;;;;;;;;;;;;;;3.37;60.58;100085.13;4962922;28;19918;-82
2023/01/30 06:55:24;;;;;;;;;;;;;;;3.34;60.42;100080.72;4950379;28;20017;-82
2023/01/30 06:57:49;;;;;;;;;;;;;;;3.19;60.79;100085.63;4949726;28;19974;-82
2023/01/30 07:00:16;;;;;;;;;;;;;;;3.05;61.01;100083.59;4948827;29;19970;-81
2023/01/30 07:02:41;;;;;;;;;;;;;;;3.40;60.51;100085.19;4948624;29;20546;-83
2023/01/30 07:05:07;;;;;;;;;;;;;;;3.45;60.16;100078.34;4952435;28;19944;-83
2023/01/30 07:07:33;;;;;;;;;;;;;;;3.40;60.01;100090.41;4964977;28;19918;-81
2023/01/30 07:09:58;;;;;;;;;;;;;;;3.35;60.25;100086.81;4953311;28;20444;-82
2023/01/30 07:12:24;;;;;;;;;;;;;;;3.44;60.01;100086.13;4968145;28;19922;-83
2023/01/30 07:14:51;;;;;;;;;;;;;;;3.49;60.47;100089.69;4968060;28;19993;-83
2023/01/30 07:17:16;;;;;;;;;;;;;;;3.48;59.82;100083.63;4967466;28;20012;-82
2023/01/30 07:19:42;;;;;;;;;;;;;;;3.71;59.79;100086.66;4955910;28;20081;-82
2023/01/30 07:22:07;;;;;;;;;;;;;;;3.62;59.11;100083.00;4948191;29;19930;-83
2023/01/30 07:24:32;;;;;;;;;;;;;;;3.66;59.62;100080.50;4948427;28;19926;-82
2023/01/30 07:26:58;;;;;;;;;;;;;;;3.58;59.03;100082.06;4951727;29;20455;-83
2023/01/30 07:29:23;;;;;;;;;;;;;;;3.30;60.73;100084.09;4951214;29;19954;-83
2023/01/30 07:31:48;;;;;;;;;;;;;;;3.54;60.21;100085.47;4951592;29;19918;-83
2023/01/30 07:34:13;;;;;;;;;;;;;;;3.53;60.99;100089.78;4950885;29;19966;-82
2023/01/30 07:36:39;;;;;;;;;;;;;;;3.42;60.55;100085.22;4957855;28;19922;-82
2023/01/30 07:39:04;;;;;;;;;;;;;;;3.43;60.55;100086.97;4970048;28;19922;-84
2023/01/30 07:41:30;;;;;;;;;;;;;;;3.63;59.75;100083.03;4970382;28;20339;-83
2023/01/30 07:43:55;;;;;;;;;;;;;;;3.60;60.29;100085.59;4970582;28;19973;-86
2023/01/30 07:46:21;;;;;;;;;;;;;;;3.43;60.34;100082.66;4970763;28;19918;-81
2023/01/30 07:48:46;;;;;;;;;;;;;;;3.49;60.46;100077.56;4970562;28;20332;-82
2023/01/30 07:51:11;;;;;;;;;;;;;;;3.62;60.61;100083.00;4970395;28;19961;-82
2023/01/30 07:53:37;;;;;;;;;;;;;;;3.90;60.10;100066.13;4968754;28;19918;-86
2023/01/30 07:56:09;;;;;;;;;;;;;;;3.93;59.48;100079.25;4970108;28;19922;-82
2023/01/30 07:58:34;;;;;;;;;;;;;;;3.85;60.32;100071.28;4970068;28;19930;-83
2023/01/30 08:00:59;;;;;;;;;;;;;;;3.48;60.22;100075.78;4968812;28;19918;-83
2023/01/30 08:03:25;;;;;;;;;;;;;;;3.44;59.99;100073.97;4952410;28;19918;-84
2023/01/30 08:05:51;;;;;;;;;;;;;;;3.66;60.29;100075.28;4984760;28;19918;-83
2023/01/30 08:08:17;;;;;;;;;;;;;;;3.70;59.59;100077.06;4970134;28;19969;-81
2023/01/30 08:10:42;;;;;;;;;;;;;;;3.76;59.33;100071.09;4969792;28;20391;-83
2023/01/30 08:13:07;;;;;;;;;;;;;;;3.82;58.89;100070.34;4951594;28;19918;-83
2023/01/30 08:15:32;;;;;;;;;;;;;;;3.56;60.09;100076.81;4950659;29;19922;-83
2023/01/30 08:17:58;;;;;;;;;;;;;;;3.78;59.93;100071.13;4950465;29;19919;-83
2023/01/30 08:20:24;;;;;;;;;;;;;;;3.88;59.48;100070.47;4950372;29;19930;-86
2023/01/30 08:22:49;;;;;;;;;;;;;;;3.85;59.36;100062.56;4950975;29;19930;-81
2023/01/30 08:25:14;;;;;;;;;;;;;;;3.74;59.57;100064.97;4950663;29;19918;-83
2023/01/30 08:27:40;;;;;;;;;;;;;;;3.72;60.38;100064.06;4949820;29;20401;-83
2023/01/30 08:30:05;;;;;;;;;;;;;;;3.67;59.66;100066.56;4950111;29;19926;-82
2023/01/30 08:32:31;;;;;;;;;;;;;;;3.72;60.91;100061.44;4950506;29;19918;-82
2023/01/30 08:34:56;;;;;;;;;;;;;;;3.45;59.69;100064.44;4949642;29;19922;-84
2023/01/30 08:37:22;;;;;;;;;;;;;;;3.59;60.11;100060.34;4949234;28;19996;-84
2023/01/30 08:39:47;;;;;;;;;;;;;;;3.64;60.74;100052.59;4950181;29;19973;-81
2023/01/30 08:42:12;;;;;;;;;;;;;;;3.40;60.34;100052.16;4949544;29;20025;-81
2023/01/30 08:44:38;;;;;;;;;;;;;;;3.49;60.19;100054.09;4950238;29;19918;-78
2023/01/30 08:47:03;;;;;;;;;;;;;;;3.70;60.97;100055.31;4950335;29;19927;-82
2023/01/30 08:49:28;;;;;;;;;;;;;;;3.79;60.10;100052.88;4949533;29;19966;-82
2023/01/30 08:51:53;;;;;;;;;;;;;;;3.82;60.23;100058.16;4950746;29;19938;-82
2023/01/30 08:54:19;;;;;;;;;;;;;;;3.76;58.91;100058.91;4950550;29;20409;-82
2023/01/30 08:56:44;;;;;;;;;;;;;;;4.08;59.44;100062.97;4950525;29;20005;-82
2023/01/30 08:59:09;;;;;;;;;;;;;;;3.93;59.61;100059.22;4950205;29;19929;-82
2023/01/30 09:01:36;;;;;;;;;;;;;;;3.84;60.39;100050.38;4950954;29;19965;-82
2023/01/30 09:04:02;;;;;;;;;;;;;;;3.92;60.11;100053.97;4949939;29;20519;-83
2023/01/30 09:06:27;;;;;;;;;;;;;;;3.69;59.78;100050.94;4950754;29;19926;-82
2023/01/30 09:08:52;;;;;;;;;;;;;;;3.94;59.75;100045.34;4965050;28;19945;-83
2023/01/30 09:11:18;;;;;;;;;;;;;;;3.93;59.34;100043.56;4949879;29;19918;-82
2023/01/30 09:13:43;;;;;;;;;;;;;;;3.93;58.94;100042.69;4950079;29;19969;-81
2023/01/30 09:16:10;;;;;;;;;;;;;;;4.27;58.68;100033.69;4949828;29;19969;-82
2023/01/30 09:18:42;;;;;;;;;;;;;;;4.14;59.94;100042.19;4949782;29;19926;-81
2023/01/30 09:21:08;;;;;;;;;;;;;;;4.20;60.47;100044.91;4949853;29;20389;-82
2023/01/30 09:23:33;;;;;;;;;;;;;;;4.64;60.56;100034.25;4950080;29;19992;-82
2023/01/30 09:25:59;;;;;;;;;;;;;;;4.58;58.65;100028.94;4949709;29;20701;-82
2023/01/30 09:28:24;;;;;;;;;;;;;;;4.34;59.56;100025.94;4950061;29;19957;-82
2023/01/30 09:30:50;;;;;;;;;;;;;;;4.63;60.84;100019.44;4949627;29;19922;-82
2023/01/30 09:33:19;;;;;;;;;;;;;;;4.65;59.46;100015.09;4949652;29;19923;-81
2023/01/30 09:35:46;;;;;;;;;;;;;;;4.65;58.71;100017.72;4949369;29;19922;-82
2023/01/30 09:38:11;;;;;;;;;;;;;;;4.26;59.66;100011.06;4949555;29;20457;-82
2023/01/30 09:40:42;;;;;;;;;;;;;;;4.60;59.15;100003.72;4949507;29;19919;-81
2023/01/30 09:43:21;;;;;;;;;;;;;;;4.07;58.74;99994.19;4964157;28;19935;-81
2023/01/30 09:46:07;;;;;;;;;;;;;;;4.25;58.90;99996.22;4948997;29;19919;-81
2023/01/30 09:48:48;;;;;;;;;;;;;;;4.36;57.87;99998.13;4948411;28;19968;-82
2023/01/30 09:51:17;;;;;;;;;;;;;;;4.43;58.34;99992.13;4948252;29;19926;-81
2023/01/30 09:53:57;;;;;;;;;;;;;;;4.30;58.39;99988.47;4949172;29;20076;-80
2023/01/30 09:56:22;;;;;;;;;;;;;;;4.34;58.69;99989.38;4948754;29;20059;-82
2023/01/30 09:58:52;;;;;;;;;;;;;;;4.42;57.19;99990.38;4949290;29;20431;-80
2023/01/30 10:01:38;;;;;;;;;;;;;;;4.28;58.44;99982.34;4949292;29;19922;-81
2023/01/30 10:04:21;;;;;;;;;;;;;;;4.27;58.82;99972.75;4907935;29;20764;-82
2023/01/30 10:07:09;;;;;;;;;;;;;;;4.23;58.32;99969.22;4907625;29;20018;-83
2023/01/30 10:09:37;;;;;;;;;;;;;;;4.27;57.42;99957.94;4866790;29;20425;-82
2023/01/30 10:12:06;;;;;;;;;;;;;;;4.26;58.44;99955.31;4865026;29;19967;-85
2023/01/30 10:14:51;;;;;;;;;;;;;;;4.44;57.54;99947.75;4864510;29;19939;-84
2023/01/30 10:17:17;;;;;;;;;;;;;;;4.45;57.03;99935.56;4790746;29;19925;-84
2023/01/30 10:19:59;;;;;;;;;;;;;;;4.74;57.68;99933.34;4792092;29;20736;-83
2023/01/30 10:22:36;;;;;;;;;;;;;;;4.92;56.42;99929.19;4794615;29;20000;-87
2023/01/30 10:25:09;;;;;;;;;;;;;;;5.02;55.54;99924.09;4799976;29;19921;-87
2023/01/30 10:27:39;;;;;;;;;;;;;;;5.07;56.13;99918.03;4798779;29;20381;-93
2023/01/30 10:30:06;;;;;;;;;;;;;;;4.82;55.63;99913.41;4795946;29;20024;-84
2023/01/30 10:32:38;;;;;;;;;;;;;;;4.63;55.60;99906.19;4790505;29;19929;-86
2023/01/30 10:35:07;;;;;;;;;;;;;;;4.59;55.98;99901.78;4793391;29;19933;-85
2023/01/30 10:37:39;;;;;;;;;;;;;;;4.61;55.29;99900.06;4792680;29;19972;-84
2023/01/30 10:40:13;;;;;;;;;;;;;;;4.48;55.54;99897.31;4795208;29;19969;-85
2023/01/30 10:42:38;;;;;;;;;;;;;;;4.39;55.99;99880.63;4819021;29;20023;-82
2023/01/30 10:45:12;;;;;;;;;;;;;;;4.66;55.80;99877.47;4814748;29;20068;-82
2023/01/30 10:47:56;;;;;;;;;;;;;;;4.45;56.29;99876.34;4879347;29;19964;-84
2023/01/30 10:50:42;;;;;;;;;;;;;;;4.62;55.61;99865.25;4908240;29;19995;-82
2023/01/30 10:53:21;;;;;;;;;;;;;;;4.97;55.75;99864.75;4906381;29;20685;-82
2023/01/30 10:55:50;;;;;;;;;;;;;;;4.61;55.83;99851.28;4967756;28;19945;-81
2023/01/30 10:58:18;;;;;;;;;;;;;;;4.47;57.56;99848.50;4967077;28;19919;-82
2023/01/30 11:00:46;;;;;;;;;;;;;;;4.61;55.07;99845.19;4968658;28;19922;-82
2023/01/30 11:03:15;;;;;;;;;;;;;;;4.36;56.19;99846.66;4970584;28;19922;-80
2023/01/30 11:05:47;;;;;;;;;;;;;;;4.48;55.31;99834.59;4971106;28;19933;-80
2023/01/30 11:08:18;;;;;;;;;;;;;;;4.78;56.32;99827.94;4970883;28;19948;-82
2023/01/30 11:10:43;;;;;;;;;;;;;;;4.84;53.58;99820.19;4970999;28;19919;-80
2023/01/30 11:13:12;;;;;;;;;;;;;;;4.89;56.56;99822.84;4971006;28;20020;-82
2023/01/30 11:15:38;;;;;;;;;;;;;;;4.94;54.18;99809.81;4971031;28;19953;-84
2023/01/30 11:18:05;;;;;;;;;;;;;;;5.21;55.25;99806.59;4969897;28;20005;-82
2023/01/30 11:20:30;;;;;;;;;;;;;;;5.20;54.53;99800.50;4971366;28;19922;-82
2023/01/30 11:23:06;;;;;;;;;;;;;;;5.07;54.44;99796.00;4970590;28;20047;-80
2023/01/30 11:25:45;;;;;;;;;;;;;;;4.96;54.86;99788.06;4970851;28;19922;-79
2023/01/30 11:28:12;;;;;;;;;;;;;;;5.38;54.62;99788.41;4971019;28;19922;-81
2023/01/30 11:30:40;;;;;;;;;;;;;;;5.17;53.62;99786.50;4970861;28;19929;-83
2023/01/30 11:33:05;;;;;;;;;;;;;;;5.08;54.09;99783.78;4970807;28;19922;-79
2023/01/30 11:35:33;;;;;;;;;;;;;;;5.16;53.49;99776.91;4970831;28;19977;-80
2023/01/30 11:38:31;;;;;;;;;;;;;;;5.12;53.77;99762.06;4970277;28;19922;-82
2023/01/30 11:41:02;;;;;;;;;;;;;;;5.13;54.32;99764.69;4929465;29;20341;-81
2023/01/30 11:43:28;;;;;;;;;;;;;;;5.09;54.64;99754.19;4929421;29;20017;-82
2023/01/30 11:45:54;;;;;;;;;;;;;;;5.24;54.38;99745.59;4929305;29;19982;-83
2023/01/30 11:48:21;;;;;;;;;;;;;;;5.63;53.79;99746.72;4929518;29;19923;-81
2023/01/30 11:50:48;;;;;;;;;;;;;;;5.36;53.90;99748.25;4929050;29;20026;-81
2023/01/30 11:53:19;;;;;;;;;;;;;;;5.30;54.84;99743.88;4929320;29;20009;-81
2023/01/30 11:55:46;;;;;;;;;;;;;;;5.07;54.09;99737.63;4929320;29;19965;-81
2023/01/30 11:58:12;;;;;;;;;;;;;;;5.25;53.29;99736.84;4929049;29;19941;-81
2023/01/30 12:00:39;;;;;;;;;;;;;;;5.40;54.02;99728.25;4929072;29;19919;-85
2023/01/30 12:03:08;;;;;;;;;;;;;;;5.17;54.62;99706.31;4929193;29;19923;-82
2023/01/30 12:05:38;;;;;;;;;;;;;;;5.33;54.47;99717.75;4929420;29;19927;-82
2023/01/30 12:08:19;;;;;;;;;;;;;;;5.36;52.12;99712.53;4928868;29;20392;-81
2023/01/30 12:10:46;;;;;;;;;;;;;;;5.10;53.94;99709.72;4929839;29;19922;-82
2023/01/30 12:13:26;;;;;;;;;;;;;;;5.29;53.29;99715.09;4929396;29;20013;-82
2023/01/30 12:16:06;;;;;;;;;;;;;;;5.20;54.35;99700.22;4938262;28;19976;-80
2023/01/30 12:18:35;;;;;;;;;;;;;;;5.32;52.70;99696.81;4970327;28;19977;-81
2023/01/30 12:21:12;;;;;;;;;;;;;;;5.15;54.42;99696.69;4969092;28;20309;-81
2023/01/30 12:23:45;;;;;;;;;;;;;;;5.19;53.75;99690.63;4970211;28;20371;-83
2023/01/30 12:26:23;;;;;;;;;;;;;;;5.30;53.50;99682.81;4970069;28;19953;-81
2023/01/30 12:29:07;;;;;;;;;;;;;;;5.46;53.15;99683.81;4970495;28;20391;-82
2023/01/30 12:31:32;;;;;;;;;;;;;;;5.50;52.37;99683.84;4969723;28;19925;-81
2023/01/30 12:33:58;;;;;;;;;;;;;;;5.18;53.56;99681.03;4970501;28;20374;-81
2023/01/30 12:36:34;;;;;;;;;;;;;;;5.27;52.59;99668.00;4970207;28;20020;-82
2023/01/30 12:39:11;;;;;;;;;;;;;;;5.11;53.54;99676.59;4970490;28;19922;-82
2023/01/30 12:41:55;;;;;;;;;;;;;;;5.01;52.93;99673.06;4970331;28;19965;-80
2023/01/30 12:44:32;;;;;;;;;;;;;;;5.12;53.96;99676.63;4984962;28;19926;-81
2023/01/30 12:47:03;;;;;;;;;;;;;;;5.33;53.38;99670.66;4969390;28;20725;-82
2023/01/30 12:49:51;;;;;;;;;;;;;;;5.33;52.59;99667.16;4984720;28;20397;-83
2023/01/30 12:52:16;;;;;;;;;;;;;;;5.18;52.51;99667.94;4984259;28;19918;-82
2023/01/30 12:54:42;;;;;;;;;;;;;;;5.18;53.45;99660.09;4969379;28;19922;-82
2023/01/30 12:57:10;;;;;;;;;;;;;;;5.36;52.85;99659.31;4969328;28;19918;-82
2023/01/30 12:59:47;;;;;;;;;;;;;;;5.45;53.17;99654.13;4969297;28;19922;-81